Time;durP1;ratioP1;P1;durP2;ratioP2;P2;SDS_P1;SDS_P2;PMS_P1;PMS_P2;Temp;Humidity;BMP_temperature;BMP_pressure;BME280_temperature;BME280_humidity;BME280_pressure;Samples;Min_cycle;Max_cycle;Signal;HPM_P1;HPM_P2
2022/06/10 00:00:53;;;;;;;;;;;12.10;99.90;;;;;;5093592;28;20052;-72
2022/06/10 00:03:20;;;;;;;21.67;5.00;;;12.10;99.90;;;;;;5094695;28;19980;-71
2022/06/10 00:05:48;;;;;;;18.08;4.40;;;12.00;99.90;;;;;;5094866;28;20402;-73
2022/06/10 00:08:20;;;;;;;13.15;4.47;;;12.00;99.90;;;;;;5094664;28;20048;-71
2022/06/10 00:10:49;;;;;;;14.82;5.22;;;11.90;99.90;;;;;;5095332;28;20055;-71
2022/06/10 00:13:16;;;;;;;12.93;4.90;;;11.90;99.90;;;;;;5094346;28;20479;-72
2022/06/10 00:15:42;;;;;;;;;;;11.80;99.90;;;;;;5093357;28;20048;-72
2022/06/10 00:18:08;;;;;;;15.03;4.03;;;11.80;99.90;;;;;;5094479;28;19920;-72
2022/06/10 00:20:34;;;;;;;19.15;4.55;;;11.70;99.90;;;;;;5076854;28;20048;-72
2022/06/10 00:23:01;;;;;;;16.10;4.90;;;11.70;99.90;;;;;;5094496;28;20122;-71
2022/06/10 00:25:27;;;;;;;11.48;4.32;;;11.70;99.90;;;;;;5092870;28;20442;-71
2022/06/10 00:27:54;;;;;;;16.08;4.68;;;11.80;99.90;;;;;;5094012;28;20365;-72
2022/06/10 00:30:23;;;;;;;7.88;3.80;;;11.90;99.90;;;;;;5093956;28;20051;-73
2022/06/10 00:32:50;;;;;;;15.85;4.40;;;11.90;99.90;;;;;;5094379;28;20449;-73
2022/06/10 00:35:16;;;;;;;15.27;3.90;;;12.00;99.90;;;;;;5093910;28;20092;-71
2022/06/10 00:37:42;;;;;;;17.83;3.75;;;11.90;99.90;;;;;;5109913;28;20369;-70
2022/06/10 00:40:18;;;;;;;14.38;4.10;;;11.80;99.90;;;;;;5094030;28;20048;-71
2022/06/10 00:42:44;;;;;;;15.48;4.20;;;11.80;99.90;;;;;;5093046;28;20408;-72
2022/06/10 00:45:47;;;;;;;10.50;3.60;;;11.70;99.90;;;;;;5093428;28;20044;-69
2022/06/10 00:48:18;;;;;;;14.75;3.67;;;11.70;99.90;;;;;;5092248;28;20381;-71
2022/06/10 00:50:45;;;;;;;12.25;3.88;;;11.70;99.90;;;;;;5093713;28;20039;-70
2022/06/10 00:53:15;;;;;;;15.18;3.67;;;11.70;99.90;;;;;;5093525;28;20059;-71
2022/06/10 00:55:43;;;;;;;23.75;4.30;;;11.70;99.90;;;;;;5093342;28;20040;-71
2022/06/10 00:58:20;;;;;;;15.25;3.08;;;11.70;99.90;;;;;;5092780;28;20043;-71
2022/06/10 01:00:46;;;;;;;15.75;3.55;;;11.70;99.90;;;;;;5092079;28;20044;-71
2022/06/10 01:03:12;;;;;;;15.15;3.22;;;11.70;99.90;;;;;;5091964;28;20508;-71
2022/06/10 01:05:38;;;;;;;11.02;3.35;;;11.60;99.90;;;;;;5095981;28;20040;-72
2022/06/10 01:08:17;;;;;;;16.77;3.50;;;11.70;99.90;;;;;;5099277;28;20044;-70
2022/06/10 01:11:08;;;;;;;20.33;3.83;;;11.70;99.90;;;;;;5092677;28;20134;-71
2022/06/10 01:14:17;;;;;;;16.38;3.92;;;11.60;99.90;;;;;;5093733;28;20522;-71
2022/06/10 01:17:03;;;;;;;14.57;3.17;;;11.60;99.90;;;;;;5093285;28;20369;-71
2022/06/10 01:19:50;;;;;;;11.00;3.90;;;11.60;99.90;;;;;;5077627;28;20412;-72
2022/06/10 01:22:53;;;;;;;9.98;4.03;;;11.60;99.90;;;;;;5092436;28;20305;-71
2022/06/10 01:25:52;;;;;;;10.43;3.97;;;11.50;99.90;;;;;;5092874;28;20128;-71
2022/06/10 01:28:27;;;;;;;15.05;3.25;;;11.50;99.90;;;;;;5092441;28;20066;-71
2022/06/10 01:31:11;;;;;;;8.00;3.40;;;11.40;99.90;;;;;;5074662;28;20044;-71
2022/06/10 01:33:49;;;;;;;13.10;3.60;;;11.40;99.90;;;;;;5074869;28;20044;-71
2022/06/10 01:36:51;;;;;;;11.18;4.05;;;11.40;99.90;;;;;;5091712;28;20044;-71
2022/06/10 01:39:48;;;;;;;23.48;4.05;;;11.30;99.90;;;;;;5062761;28;20048;-72
2022/06/10 01:42:45;;;;;;;15.10;3.80;;;11.30;99.90;;;;;;5091517;28;20476;-71
2022/06/10 01:45:46;;;;;;;19.60;3.72;;;11.30;99.90;;;;;;5092936;28;20378;-71
2022/06/10 01:48:20;;;;;;;14.10;3.67;;;11.30;99.90;;;;;;5065631;28;20131;-71
2022/06/10 01:50:57;;;;;;;10.95;4.05;;;11.30;99.90;;;;;;5093092;28;20044;-71
2022/06/10 01:53:31;;;;;;;11.73;3.47;;;11.30;99.90;;;;;;5092199;28;20483;-72
2022/06/10 01:56:12;;;;;;;10.43;4.38;;;11.30;99.90;;;;;;5092514;28;20046;-72
2022/06/10 01:58:50;;;;;;;11.20;4.35;;;11.20;99.90;;;;;;5091747;28;20115;-71
2022/06/10 02:01:23;;;;;;;22.63;7.00;;;11.20;99.90;;;;;;5091908;28;20130;-71
2022/06/10 02:04:15;;;;;;;12.25;3.88;;;11.10;99.90;;;;;;5092598;28;20079;-71
2022/06/10 02:06:56;;;;;;;13.35;3.58;;;11.10;99.90;;;;;;5085813;28;20496;-72
2022/06/10 02:09:28;;;;;;;14.10;4.10;;;11.10;99.90;;;;;;5092045;28;20491;-72
2022/06/10 02:12:02;;;;;;;15.38;3.78;;;11.20;99.90;;;;;;5074557;28;20040;-73
2022/06/10 02:14:41;;;;;;;14.85;3.83;;;11.20;99.90;;;;;;5092987;28;20051;-72
2022/06/10 02:17:09;;;;;;;11.98;3.85;;;11.20;99.90;;;;;;5074939;28;20520;-71
2022/06/10 02:19:40;;;;;;;13.98;3.80;;;11.10;99.90;;;;;;5093009;28;20055;-72
2022/06/10 02:22:18;;;;;;;13.05;3.80;;;11.20;99.90;;;;;;5092984;28;20373;-72
2022/06/10 02:24:52;;;;;;;16.88;4.18;;;11.10;99.90;;;;;;5091763;28;20059;-72
2022/06/10 02:27:43;;;;;;;19.60;3.80;;;11.10;99.90;;;;;;5091445;28;20091;-72
2022/06/10 02:30:32;;;;;;;13.57;3.75;;;11.10;99.90;;;;;;5097905;28;20056;-71
2022/06/10 02:32:58;;;;;;;8.98;3.63;;;11.10;99.90;;;;;;5090127;28;20404;-71
2022/06/10 02:35:28;;;;;;;14.18;4.03;;;11.00;99.90;;;;;;5074248;28;20044;-71
2022/06/10 02:38:25;;;;;;;12.05;3.88;;;11.00;99.90;;;;;;5074218;28;20503;-71
2022/06/10 02:41:09;;;;;;;10.82;3.80;;;10.90;99.90;;;;;;5074296;28;20391;-70
2022/06/10 02:43:44;;;;;;;16.88;4.28;;;10.90;99.90;;;;;;5092254;28;20118;-71
2022/06/10 02:46:47;;;;;;;10.90;3.80;;;10.90;99.90;;;;;;5091528;28;20052;-71
2022/06/10 02:49:19;;;;;;;12.80;4.13;;;10.90;99.90;;;;;;5074758;28;20401;-70
2022/06/10 02:51:47;;;;;;;15.85;3.78;;;10.80;99.90;;;;;;5091329;28;20052;-71
2022/06/10 02:54:20;;;;;;;16.30;3.88;;;10.80;99.90;;;;;;5078939;28;20115;-71
2022/06/10 02:56:46;;;;;;;21.92;4.15;;;10.80;99.90;;;;;;5095575;28;20048;-70
2022/06/10 03:02:22;;;;;;;14.80;4.20;;;10.80;99.90;;;;;;5095805;28;20147;-72
2022/06/10 03:05:29;;;;;;;17.95;4.97;;;10.70;99.90;;;;;;5095611;28;20047;-72
2022/06/10 03:08:10;;;;;;;15.10;3.95;;;10.70;99.90;;;;;;5094767;28;20083;-72
2022/06/10 03:10:51;;;;;;;17.38;4.15;;;10.70;99.90;;;;;;5098674;28;20364;-70
2022/06/10 03:13:25;;;;;;;19.30;4.47;;;10.70;99.90;;;;;;5094945;28;20475;-71
2022/06/10 03:16:00;;;;;;;15.48;3.60;;;10.70;99.90;;;;;;5094542;28;20368;-73
2022/06/10 03:18:34;;;;;;;10.23;3.47;;;10.70;99.90;;;;;;5094597;28;20341;-71
2022/06/10 03:21:38;;;;;;;12.32;4.28;;;10.80;99.90;;;;;;5077538;28;20040;-74
2022/06/10 03:24:18;;;;;;;17.13;4.25;;;10.80;99.90;;;;;;5062169;28;20056;-71
2022/06/10 03:27:01;;;;;;;12.30;4.45;;;10.80;99.90;;;;;;5093706;28;20056;-71
2022/06/10 03:29:43;;;;;;;13.07;4.25;;;10.80;99.90;;;;;;5077072;28;20154;-72
2022/06/10 03:32:34;;;;;;;17.02;4.38;;;10.80;99.90;;;;;;5093826;28;20048;-72
2022/06/10 03:35:22;;;;;;;11.75;3.88;;;10.90;99.90;;;;;;5095206;28;20128;-73
2022/06/10 03:37:49;;;;;;;15.90;4.10;;;11.00;99.90;;;;;;5079054;28;20134;-72
2022/06/10 03:40:21;;;;;;;12.35;4.55;;;11.00;99.90;;;;;;5094518;28;20067;-72
2022/06/10 03:42:50;;;;;;;18.27;4.18;;;11.00;99.90;;;;;;5095398;28;20047;-71
2022/06/10 03:45:20;;;;;;;18.45;4.85;;;11.10;99.90;;;;;;5094574;28;20377;-71
2022/06/10 03:47:46;;;;;;;15.27;4.97;;;11.10;99.90;;;;;;5094042;28;20051;-71
2022/06/10 03:50:15;;;;;;;17.63;4.67;;;11.20;99.90;;;;;;5094564;28;20091;-72
2022/06/10 03:52:44;;;;;;;19.85;4.85;;;11.20;99.90;;;;;;5076638;28;20361;-70
2022/06/10 03:55:16;;;;;;;12.07;3.78;;;11.20;99.90;;;;;;5092894;28;20048;-71
2022/06/10 03:57:43;;;;;;;18.27;4.95;;;11.30;99.90;;;;;;5093269;28;20050;-71
2022/06/10 04:00:17;;;;;;;11.45;4.60;;;11.30;99.90;;;;;;5094231;28;20052;-70
2022/06/10 04:02:42;;;;;;;13.35;4.95;;;11.30;99.90;;;;;;5094148;28;20132;-71
2022/06/10 04:05:10;;;;;;;13.90;4.50;;;11.40;99.90;;;;;;5080652;28;20456;-72
2022/06/10 04:07:37;;;;;;;14.60;4.70;;;11.40;99.90;;;;;;5100429;28;20328;-72
2022/06/10 04:10:04;;;;;;;16.77;5.60;;;11.40;99.90;;;;;;5093214;28;20090;-70
2022/06/10 04:12:29;;;;;;;;;;;11.50;99.90;;;;;;5094749;28;20073;-71
2022/06/10 04:14:55;;;;;;;15.43;4.50;;;11.50;99.90;;;;;;5093221;28;19920;-71
2022/06/10 04:17:21;;;;;;;17.17;5.15;;;11.60;99.90;;;;;;5094109;28;20387;-71
2022/06/10 04:19:47;;;;;;;16.88;4.82;;;11.70;99.90;;;;;;5093748;28;20048;-70
2022/06/10 04:22:12;;;;;;;13.75;5.13;;;11.70;99.90;;;;;;5092501;28;20048;-70
2022/06/10 04:24:38;;;;;;;14.13;4.88;;;11.80;99.90;;;;;;5075353;28;20136;-71
2022/06/10 04:27:05;;;;;;;16.00;5.13;;;11.80;99.90;;;;;;5092649;28;20132;-70
2022/06/10 04:29:30;;;;;;;21.70;5.50;;;11.90;99.90;;;;;;5092640;28;20056;-71
2022/06/10 04:31:56;;;;;;;15.63;6.18;;;12.00;99.90;;;;;;5092673;28;20142;-71
2022/06/10 04:34:22;;;;;;;27.10;5.95;;;12.00;99.90;;;;;;5093670;28;20122;-71
2022/06/10 04:36:48;;;;;;;15.45;5.50;;;12.10;99.90;;;;;;5092276;28;20365;-71
2022/06/10 04:39:14;;;;;;;16.52;5.97;;;12.10;99.90;;;;;;5075360;28;20097;-70
2022/06/10 04:41:40;;;;;;;14.27;5.55;;;12.30;99.90;;;;;;5093412;28;20048;-71
2022/06/10 04:44:06;;;;;;;16.35;5.65;;;12.30;99.90;;;;;;5092593;28;20052;-71
2022/06/10 04:46:39;;;;;;;19.57;5.97;;;12.40;99.90;;;;;;5093496;28;20051;-71
2022/06/10 04:49:06;;;;;;;15.23;6.03;;;12.50;99.90;;;;;;5093316;28;20276;-71
2022/06/10 04:51:33;;;;;;;12.43;6.00;;;12.60;99.90;;;;;;5092392;28;20105;-71
2022/06/10 04:53:59;;;;;;;16.17;5.93;;;12.80;99.90;;;;;;5091814;28;20469;-71
2022/06/10 04:56:25;;;;;;;24.35;6.50;;;12.90;99.90;;;;;;5093522;28;20048;-73
2022/06/10 04:58:51;;;;;;;21.85;6.50;;;13.00;99.90;;;;;;5093689;28;20048;-72
2022/06/10 05:01:16;;;;;;;19.02;6.05;;;13.10;99.90;;;;;;5092360;28;20044;-71
2022/06/10 05:03:42;;;;;;;24.30;5.70;;;13.30;99.90;;;;;;5093378;28;20090;-73
2022/06/10 05:06:08;;;;;;;15.55;5.85;;;13.50;99.90;;;;;;5108993;28;20047;-71
2022/06/10 05:08:34;;;;;;;21.13;6.13;;;13.80;99.90;;;;;;5091492;28;20083;-71
2022/06/10 05:11:00;;;;;;;18.98;6.18;;;14.10;99.90;;;;;;5094098;28;20078;-71
2022/06/10 05:13:25;;;;;;;18.52;6.22;;;14.40;99.90;;;;;;5093384;28;20467;-73
2022/06/10 05:15:52;;;;;;;15.25;5.80;;;14.60;99.90;;;;;;5076731;28;20051;-72
2022/06/10 05:18:20;;;;;;;15.67;5.43;;;14.80;99.90;;;;;;5093798;28;20055;-72
2022/06/10 05:20:48;;;;;;;18.10;5.90;;;14.70;99.90;;;;;;5076932;28;20302;-71
2022/06/10 05:23:17;;;;;;;15.98;5.28;;;14.70;99.90;;;;;;5093354;28;20108;-73
2022/06/10 05:25:43;;;;;;;18.95;6.20;;;14.70;99.90;;;;;;5094714;28;20095;-72
2022/06/10 05:28:12;;;;;;;14.77;5.30;;;14.80;99.90;;;;;;5098883;28;20071;-71
2022/06/10 05:30:39;;;;;;;18.42;5.93;;;15.00;99.90;;;;;;5094631;28;20468;-72
2022/06/10 05:33:06;;;;;;;20.85;5.82;;;14.80;99.90;;;;;;5093391;28;20056;-72
2022/06/10 05:35:32;;;;;;;13.20;4.82;;;14.70;99.90;;;;;;5093217;28;20040;-74
2022/06/10 05:37:59;;;;;;;19.57;5.90;;;14.80;99.90;;;;;;5092521;28;20052;-71
2022/06/10 05:40:27;;;;;;;15.52;5.90;;;14.80;99.90;;;;;;5091400;28;20290;-71
2022/06/10 05:42:52;;;;;;;20.95;5.38;;;14.80;99.90;;;;;;5091540;28;20040;-73
2022/06/10 05:45:21;;;;;;;16.52;5.03;;;14.90;99.90;;;;;;5074768;28;20123;-72
2022/06/10 05:47:50;;;;;;;17.98;5.05;;;14.90;99.90;;;;;;5092747;28;20047;-72
2022/06/10 05:50:22;;;;;;;18.83;4.88;;;14.90;99.90;;;;;;5092494;28;20048;-72
2022/06/10 05:52:48;;;;;;;20.38;4.47;;;14.90;99.90;;;;;;5091126;28;20547;-71
2022/06/10 05:55:14;;;;;;;19.95;4.75;;;14.80;99.90;;;;;;5092512;28;20126;-69
2022/06/10 05:57:41;;;;;;;23.60;4.78;;;14.80;99.90;;;;;;5092784;28;20048;-73
2022/06/10 06:00:13;;;;;;;15.18;4.07;;;14.90;99.90;;;;;;5091255;28;20059;-71
2022/06/10 06:02:42;;;;;;;15.52;4.57;;;15.00;99.90;;;;;;5092924;28;20094;-71
2022/06/10 06:05:11;;;;;;;12.75;4.03;;;15.10;99.90;;;;;;5092735;28;20048;-73
2022/06/10 06:07:39;;;;;;;19.77;4.47;;;15.20;99.90;;;;;;5074494;28;20040;-71
2022/06/10 06:10:06;;;;;;;18.38;4.70;;;15.40;99.90;;;;;;5092697;28;20040;-70
2022/06/10 06:12:32;;;;;;;14.27;4.35;;;15.40;99.90;;;;;;5091168;28;20115;-71
2022/06/10 06:14:58;;;;;;;11.75;4.20;;;15.40;99.90;;;;;;5092898;28;20094;-71
2022/06/10 06:17:24;;;;;;;18.70;4.72;;;15.60;99.90;;;;;;5058105;28;20048;-73
2022/06/10 06:19:49;;;;;;;18.15;4.75;;;15.70;99.90;;;;;;5091355;28;20059;-72
2022/06/10 06:22:16;;;;;;;11.93;4.38;;;15.80;99.90;;;;;;5090943;28;20048;-73
2022/06/10 06:24:42;;;;;;;18.17;4.68;;;15.80;99.90;;;;;;5091263;28;20529;-72
2022/06/10 06:27:12;;;;;;;21.23;5.10;;;15.80;99.90;;;;;;5093845;28;20080;-72
2022/06/10 06:29:37;;;;;;;24.60;4.10;;;15.90;99.90;;;;;;5096201;28;20047;-71
2022/06/10 06:32:04;;;;;;;13.50;3.72;;;15.80;99.90;;;;;;5078674;28;20488;-72
2022/06/10 06:34:29;;;;;;;12.97;4.50;;;15.80;99.90;;;;;;5102113;28;20205;-73
2022/06/10 06:36:58;;;;;;;13.55;3.97;;;;;;;;;;5097537;28;20365;-73
2022/06/10 06:39:25;;;;;;;15.50;3.90;;;15.80;99.90;;;;;;5096584;28;20047;-75
2022/06/10 06:41:53;;;;;;;21.13;5.18;;;15.60;99.90;;;;;;5099158;28;20105;-73
2022/06/10 06:44:19;;;;;;;17.75;4.72;;;15.60;99.90;;;;;;5097934;28;20376;-73
2022/06/10 06:46:45;;;;;;;13.70;4.82;;;16.20;99.90;;;;;;5095460;28;20087;-74
2022/06/10 06:49:15;;;;;;;19.08;4.60;;;15.80;99.90;;;;;;5096497;28;20489;-73
2022/06/10 06:51:41;;;;;;;16.08;5.25;;;15.80;99.90;;;;;;5094925;28;20055;-72
2022/06/10 06:54:10;;;;;;;14.38;5.53;;;15.70;99.90;;;;;;5094816;28;20105;-73
2022/06/10 06:56:36;;;;;;;15.88;5.28;;;15.80;99.90;;;;;;5095756;28;20044;-73
2022/06/10 06:59:03;;;;;;;13.43;5.30;;;;;;;;;;5095039;28;20134;-73
2022/06/10 07:01:29;;;;;;;16.05;5.63;;;16.00;99.90;;;;;;5094091;28;20142;-72
2022/06/10 07:03:54;;;;;;;14.30;5.32;;;16.10;99.90;;;;;;5079393;28;20067;-72
2022/06/10 07:06:20;;;;;;;11.70;4.35;;;16.20;99.90;;;;;;5109335;28;20040;-71
2022/06/10 07:08:46;;;;;;;15.52;5.40;;;16.40;99.90;;;;;;5082927;28;20109;-72
2022/06/10 07:11:12;;;;;;;18.58;5.72;;;16.40;99.90;;;;;;5096238;28;20556;-72
2022/06/10 07:13:38;;;;;;;17.10;5.38;;;16.40;99.90;;;;;;5077809;28;20057;-74
2022/06/10 07:16:05;;;;;;;14.98;5.70;;;16.60;99.90;;;;;;5094185;28;20074;-73
2022/06/10 07:18:31;;;;;;;;;;;16.70;99.90;;;;;;5094398;28;20088;-73
2022/06/10 07:20:57;;;;;;;14.18;4.63;;;16.90;99.90;;;;;;5095423;28;19927;-72
2022/06/10 07:23:24;;;;;;;16.25;5.60;;;17.00;99.90;;;;;;5094707;28;20083;-73
2022/06/10 07:25:49;;;;;;;15.50;5.15;;;17.10;99.90;;;;;;5095354;28;20135;-73
2022/06/10 07:28:15;;;;;;;12.60;5.25;;;17.20;99.90;;;;;;5095164;28;20140;-73
2022/06/10 07:30:42;;;;;;;13.90;4.82;;;17.10;99.90;;;;;;5094646;28;20154;-72
2022/06/10 07:33:08;;;;;;;17.02;5.50;;;17.20;99.90;;;;;;5095561;28;20134;-72
2022/06/10 07:35:35;;;;;;;13.27;5.05;;;17.40;99.90;;;;;;5095527;28;20121;-72
2022/06/10 07:38:01;;;;;;;17.67;5.43;;;17.60;99.90;;;;;;5093035;28;20113;-72
2022/06/10 07:43:21;;;;;;;15.07;5.15;;;17.90;99.90;;;;;;5095208;28;20048;-73
2022/06/10 07:45:48;;;;;;;13.73;5.05;;;18.00;99.90;;;;;;5093649;28;20105;-73
2022/06/10 07:48:14;;;;;;;16.90;5.28;;;18.10;99.90;;;;;;5093748;28;20066;-73
2022/06/10 07:50:42;;;;;;;18.50;5.30;;;18.00;99.90;;;;;;5094370;28;20051;-72
2022/06/10 07:53:09;;;;;;;15.10;5.40;;;18.30;99.90;;;;;;5094904;28;20048;-72
2022/06/10 07:55:36;;;;;;;12.15;4.95;;;18.60;99.90;;;;;;5076867;28;20048;-73
2022/06/10 07:58:02;;;;;;;;;;;18.70;99.90;;;;;;5093826;28;20055;-73
2022/06/10 08:00:28;;;;;;;13.85;4.43;;;18.80;99.90;;;;;;5094667;28;19989;-72
2022/06/10 08:02:53;;;;;;;13.88;4.70;;;18.80;99.90;;;;;;5093929;28;20074;-72
2022/06/10 08:05:20;;;;;;;18.70;4.50;;;18.70;99.90;;;;;;5093463;28;20425;-73
2022/06/10 08:07:46;;;;;;;10.40;4.20;;;18.40;99.90;;;;;;5095145;28;20059;-73
2022/06/10 08:10:30;;;;;;;17.03;4.30;;;18.40;99.90;;;;;;5093353;28;20062;-73
2022/06/10 08:12:55;;;;;;;12.63;4.25;;;18.30;99.90;;;;;;5076428;28;20040;-73
2022/06/10 08:15:22;;;;;;;20.87;7.90;;;18.30;99.90;;;;;;5094230;28;20085;-72
2022/06/10 08:17:56;;;;;;;13.68;4.78;;;18.20;99.90;;;;;;5094131;28;20086;-73
2022/06/10 08:23:13;;;;;;;21.17;6.63;;;18.20;99.90;;;;;;5092899;28;20056;-72
2022/06/10 08:25:39;;;;;;;15.90;3.97;;;18.30;99.90;;;;;;5093424;28;20510;-73
2022/06/10 08:28:05;;;;;;;13.27;4.32;;;18.40;99.90;;;;;;5093656;28;20503;-73
2022/06/10 08:30:31;;;;;;;15.27;4.60;;;18.40;99.90;;;;;;5076077;28;20043;-72
2022/06/10 08:32:57;;;;;;;21.27;4.40;;;18.40;99.90;;;;;;5093461;28;20121;-72
2022/06/10 08:35:22;;;;;;;15.35;4.50;;;18.50;99.90;;;;;;5094399;28;20048;-72
2022/06/10 08:37:48;;;;;;;18.67;8.20;;;18.50;99.90;;;;;;5092826;28;20212;-71
2022/06/10 08:40:42;;;;;;;15.60;5.53;;;18.50;99.90;;;;;;5092835;28;20044;-71
2022/06/10 08:43:22;;;;;;;14.93;4.90;;;18.60;99.90;;;;;;5094176;28;20201;-71
2022/06/10 08:46:25;;;;;;;12.80;4.40;;;18.60;99.90;;;;;;5093618;28;20476;-72
2022/06/10 08:49:06;;;;;;;11.63;4.20;;;18.60;99.90;;;;;;5092494;28;20044;-73
2022/06/10 08:51:43;;;;;;;17.73;5.80;;;18.60;99.90;;;;;;5091981;28;20510;-72
2022/06/10 08:54:34;;;;;;;17.60;8.52;;;18.70;99.90;;;;;;5093800;28;20077;-72
2022/06/10 08:57:06;;;;;;;20.55;9.32;;;18.70;99.90;;;;;;5093604;28;20055;-72
2022/06/10 08:59:39;;;;;;;15.30;5.72;;;18.80;99.90;;;;;;5093843;28;20043;-72
2022/06/10 09:02:38;;;;;;;21.52;5.10;;;18.80;99.90;;;;;;5092531;28;20055;-72
2022/06/10 09:05:13;;;;;;;27.70;7.07;;;18.70;99.90;;;;;;5093613;28;20113;-72
2022/06/10 09:07:48;;;;;;;18.20;4.30;;;18.80;99.90;;;;;;5092259;28;20373;-72
2022/06/10 09:10:51;;;;;;;14.90;3.78;;;18.90;99.90;;;;;;5092868;28;20060;-73
2022/06/10 09:13:26;;;;;;;18.58;6.93;;;18.80;99.90;;;;;;5061435;28;20056;-73
2022/06/10 09:15:58;;;;;;;14.00;4.28;;;18.70;99.90;;;;;;5075401;28;20040;-73
2022/06/10 09:18:56;;;;;;;12.57;3.33;;;18.80;99.90;;;;;;5094055;28;20048;-73
2022/06/10 09:22:00;;;;;;;14.32;3.15;;;18.80;99.90;;;;;;5079846;28;20113;-72
2022/06/10 09:24:35;;;;;;;14.25;4.70;;;18.90;99.90;;;;;;5093721;28;20089;-72
2022/06/10 09:27:33;;;;;;;15.20;5.57;;;18.80;99.90;;;;;;5093666;28;20059;-72
2022/06/10 09:30:03;;;;;;;30.23;13.15;;;18.90;99.90;;;;;;5093335;28;20044;-73
2022/06/10 09:33:14;;;;;;;21.80;8.10;;;18.90;99.90;;;;;;5092540;28;20137;-72
2022/06/10 09:35:53;;;;;;;17.88;5.13;;;18.90;99.90;;;;;;5092492;28;20490;-72
2022/06/10 09:38:34;;;;;;;13.25;4.00;;;18.90;99.90;;;;;;5092428;28;20074;-73
2022/06/10 09:41:09;;;;;;;21.70;7.07;;;19.10;99.90;;;;;;5076254;28;20396;-73
2022/06/10 09:43:58;;;;;;;18.83;4.65;;;19.20;99.90;;;;;;5092776;28;20481;-72
2022/06/10 09:46:47;;;;;;;11.32;2.92;;;19.40;99.90;;;;;;5097816;28;20059;-73
2022/06/10 09:49:35;;;;;;;12.65;3.35;;;19.80;99.90;;;;;;5110563;28;20059;-73
2022/06/10 09:52:15;;;;;;;15.30;4.38;;;20.00;99.90;;;;;;5092398;28;20456;-74
2022/06/10 09:55:19;;;;;;;11.70;3.40;;;20.20;99.90;;;;;;5111061;28;20040;-74
2022/06/10 09:58:12;;;;;;;17.13;3.78;;;20.40;99.90;;;;;;5107657;28;20040;-73
2022/06/10 10:00:53;;;;;;;14.18;2.67;;;20.60;99.90;;;;;;5088308;28;20224;-73
2022/06/10 10:03:51;;;;;;;11.70;3.08;;;20.50;99.90;;;;;;5110075;28;20087;-74
2022/06/10 10:06:35;;;;;;;10.45;2.88;;;20.70;99.90;;;;;;5119106;28;20395;-72
2022/06/10 10:09:36;;;;;;;11.90;3.17;;;20.60;99.90;;;;;;5107854;28;20130;-72
2022/06/10 10:12:08;;;;;;;14.95;3.47;;;20.70;99.90;;;;;;5099181;28;20128;-72
2022/06/10 10:14:45;;;;;;;11.93;4.15;;;20.80;99.90;;;;;;5083153;28;20384;-73
2022/06/10 10:17:47;;;;;;;10.45;3.17;;;21.00;99.90;;;;;;5100473;28;20467;-71
2022/06/10 10:20:42;;;;;;;14.68;4.38;;;21.30;99.90;;;;;;5101934;28;20047;-73
2022/06/10 10:23:46;;;;;;;25.40;6.80;;;21.50;99.90;;;;;;5085067;28;20048;-72
2022/06/10 10:26:37;;;;;;;14.32;3.72;;;21.80;99.90;;;;;;5097261;28;20091;-73
2022/06/10 10:29:18;;;;;;;16.50;4.57;;;22.20;99.90;;;;;;5078692;28;20089;-73
2022/06/10 10:32:04;;;;;;;13.95;3.85;;;22.30;99.90;;;;;;5096919;28;20040;-74
2022/06/10 10:34:36;;;;;;;11.77;3.80;;;22.50;99.90;;;;;;5097419;28;20048;-75
2022/06/10 10:37:05;;;;;;;17.05;4.28;;;22.50;99.90;;;;;;5095822;28;20071;-74
2022/06/10 10:39:38;;;;;;;17.35;4.15;;;22.20;99.90;;;;;;5096678;28;20047;-75
2022/06/10 10:42:17;;;;;;;12.93;4.50;;;22.20;99.90;;;;;;5079215;28;20044;-75
2022/06/10 10:45:00;;;;;;;18.48;5.10;;;21.90;99.90;;;;;;5097807;28;20078;-74
2022/06/10 10:47:34;;;;;;;12.57;4.65;;;22.00;99.90;;;;;;5096865;28;20052;-75
2022/06/10 10:50:03;;;;;;;11.85;3.97;;;22.10;99.90;;;;;;5078328;28;20514;-76
2022/06/10 10:52:29;;;;;;;13.10;3.92;;;22.20;99.90;;;;;;5095591;28;20465;-76
2022/06/10 10:55:01;;;;;;;18.10;6.27;;;22.20;99.90;;;;;;5096404;28;20083;-78
2022/06/10 10:57:31;;;;;;;14.27;4.60;;;22.10;99.90;;;;;;5095562;28;20055;-74
2022/06/10 11:00:07;;;;;;;18.17;5.10;;;22.20;99.90;;;;;;5095554;28;20044;-76
2022/06/10 11:03:03;;;;;;;19.97;4.73;;;22.40;99.90;;;;;;5078621;28;20082;-73
2022/06/10 11:06:03;;;;;;;17.67;4.25;;;22.60;99.90;;;;;;5095569;28;20044;-72
2022/06/10 11:08:31;;;;;;;18.63;4.45;;;22.50;99.90;;;;;;5061511;28;20052;-73
2022/06/10 11:11:13;;;;;;;12.82;4.60;;;22.30;99.90;;;;;;5112146;28;20052;-77
2022/06/10 11:13:52;;;;;;;13.85;4.28;;;22.60;99.90;;;;;;5098050;28;20109;-74
2022/06/10 11:16:26;;;;;;;12.90;3.70;;;22.80;99.90;;;;;;5096765;28;20463;-74
2022/06/10 11:19:07;;;;;;;13.05;3.50;;;23.00;99.90;;;;;;5097349;28;20059;-77
2022/06/10 11:21:47;;;;;;;12.82;3.70;;;23.20;99.90;;;;;;5097302;28;20048;-73
2022/06/10 11:24:22;;;;;;;13.82;3.22;;;23.00;99.90;;;;;;5097801;28;20040;-74
2022/06/10 11:26:51;;;;;;;14.38;3.35;;;23.40;99.90;;;;;;5096747;28;20064;-73
2022/06/10 11:29:17;;;;;;;13.48;4.30;;;23.40;99.90;;;;;;5096570;28;20103;-73
2022/06/10 11:32:00;;;;;;;13.53;3.63;;;23.60;99.90;;;;;;5077587;28;20091;-75
2022/06/10 11:34:41;;;;;;;15.48;3.70;;;23.60;99.90;;;;;;5094996;28;20075;-71
2022/06/10 11:37:21;;;;;;;21.15;7.80;;;23.00;99.90;;;;;;5095757;28;20044;-73
2022/06/10 11:40:01;;;;;;;13.60;2.90;;;22.60;99.90;;;;;;5096232;28;20048;-74
2022/06/10 11:42:33;;;;;;;10.52;2.95;;;22.60;99.90;;;;;;5095361;28;20464;-72
2022/06/10 11:45:13;;;;;;;11.27;2.80;;;22.40;99.90;;;;;;5094590;28;20108;-80
2022/06/10 11:48:04;;;;;;;10.85;2.42;;;22.40;99.90;;;;;;5094738;28;20055;-76
2022/06/10 11:50:34;;;;;;;11.38;3.17;;;22.40;99.90;;;;;;5094709;28;20048;-73
2022/06/10 11:53:09;;;;;;;11.50;3.20;;;22.20;99.90;;;;;;5095076;28;20067;-73
2022/06/10 11:55:39;;;;;;;11.63;2.92;;;22.00;99.90;;;;;;5094579;28;20048;-74
2022/06/10 12:01:27;;;;;;;11.95;3.47;;;22.20;99.90;;;;;;5093050;28;20066;-75
2022/06/10 12:04:03;;;;;;;9.75;3.40;;;22.20;99.90;;;;;;5076597;28;20055;-74
2022/06/10 12:06:35;;;;;;;13.98;3.80;;;22.30;99.90;;;;;;5093504;28;20044;-75
2022/06/10 12:09:15;;;;;;;10.48;2.78;;;22.30;99.90;;;;;;5095176;28;20393;-75
2022/06/10 12:12:04;;;;;;;19.17;3.58;;;22.50;99.90;;;;;;5094820;28;20092;-74
2022/06/10 12:14:45;;;;;;;10.10;3.28;;;22.50;99.90;;;;;;5094640;28;20058;-73
2022/06/10 12:17:24;;;;;;;15.63;3.25;;;22.60;99.90;;;;;;5093510;28;20048;-75
2022/06/10 12:20:06;;;;;;;7.70;2.15;;;22.70;99.90;;;;;;5094589;28;20044;-73
2022/06/10 12:22:34;;;;;;;12.85;2.92;;;22.80;99.90;;;;;;5094918;28;20484;-74
2022/06/10 12:25:00;;;;;;;11.82;2.90;;;22.70;99.90;;;;;;5093786;28;20062;-73
2022/06/10 12:27:38;;;;;;;11.32;3.60;;;22.70;99.90;;;;;;5095521;28;20048;-74
2022/06/10 12:30:18;;;;;;;17.27;4.05;;;22.60;99.90;;;;;;5093314;28;20131;-74
2022/06/10 12:32:48;;;;;;;11.38;3.03;;;22.60;99.90;;;;;;5093612;28;20052;-73
2022/06/10 12:35:28;;;;;;;12.93;3.20;;;22.70;99.90;;;;;;5093512;28;20365;-76
2022/06/10 12:37:59;;;;;;;12.18;3.08;;;22.90;99.90;;;;;;5094863;28;20071;-76
2022/06/10 12:40:56;;;;;;;9.40;2.90;;;23.00;99.90;;;;;;5092831;28;20048;-73
2022/06/10 12:43:29;;;;;;;12.50;3.35;;;23.20;99.90;;;;;;5093637;28;20091;-73
2022/06/10 12:46:12;;;;;;;12.95;3.35;;;23.30;99.90;;;;;;5094569;28;20094;-74
2022/06/10 12:48:46;;;;;;;14.77;3.28;;;23.40;99.90;;;;;;5093969;28;20043;-75
2022/06/10 12:51:12;;;;;;;12.70;3.72;;;23.40;99.90;;;;;;5094278;28;20524;-73
2022/06/10 12:53:47;;;;;;;10.80;2.90;;;23.20;99.90;;;;;;5093451;28;20091;-74
2022/06/10 12:56:34;;;;;;;13.13;3.53;;;23.30;99.90;;;;;;5093866;28;20123;-73
2022/06/10 12:59:09;;;;;;;15.18;3.83;;;23.20;99.90;;;;;;5093958;28;20192;-74
2022/06/10 13:01:35;;;;;;;16.90;4.40;;;23.20;99.90;;;;;;5094560;28;20075;-72
2022/06/10 13:04:02;;;;;;;16.77;4.23;;;22.90;99.90;;;;;;5106865;28;20052;-73
2022/06/10 13:06:43;;;;;;;16.25;4.13;;;22.80;99.90;;;;;;5108119;28;20067;-74
2022/06/10 13:09:12;;;;;;;10.65;3.65;;;22.80;99.90;;;;;;5096519;28;20048;-76
2022/06/10 13:11:46;;;;;;;19.03;4.27;;;23.00;99.90;;;;;;5093281;28;20047;-73
2022/06/10 13:14:30;;;;;;;13.50;3.92;;;23.20;99.90;;;;;;5095598;28;20365;-76
2022/06/10 13:16:59;;;;;;;51.92;5.90;;;23.20;99.90;;;;;;5076747;28;20055;-74
2022/06/10 13:20:02;;;;;;;25.02;4.55;;;23.50;99.90;;;;;;5095148;28;20058;-74
2022/06/10 13:22:39;;;;;;;93.75;11.20;;;23.50;99.90;;;;;;5092901;28;20040;-73
2022/06/10 13:25:08;;;;;;;50.38;7.55;;;23.60;99.90;;;;;;5093316;28;20085;-75
2022/06/10 13:27:39;;;;;;;21.60;4.35;;;23.60;99.90;;;;;;5093136;28;20052;-73